Time;durP1;ratioP1;P1;durP2;ratioP2;P2;SDS_P1;SDS_P2;PMS_P1;PMS_P2;Temp;Humidity;BMP_temperature;BMP_pressure;BME280_temperature;BME280_humidity;BME280_pressure;Samples;Min_cycle;Max_cycle;Signal;HPM_P1;HPM_P2
2022/11/02 00:02:03;;;;;;;;;3.00;0.25;;;;;16.10;54.27;101325.63;5066280;28;47586;-42
2022/11/02 00:04:28;;;;;;;;;1.50;1.00;;;;;16.05;54.29;101317.03;5067427;27;45344;-43
2022/11/02 00:06:54;;;;;;;;;2.50;1.00;;;;;16.04;54.33;101329.41;5077328;27;67556;-45
2022/11/02 00:09:19;;;;;;;;;5.75;2.00;;;;;16.00;54.95;101319.84;5078193;28;45809;-42
2022/11/02 00:11:44;;;;;;;;;3.00;1.00;;;;;16.01;54.99;101324.22;5078962;28;65026;-44
2022/11/02 00:14:10;;;;;;;;;3.25;1.25;;;;;16.00;55.03;101321.66;5078846;27;62305;-45
2022/11/02 00:16:38;;;;;;;;;1.50;0.75;;;;;15.99;55.06;101322.56;5077198;27;45542;-42
2022/11/02 00:19:04;;;;;;;;;4.75;1.00;;;;;15.94;54.92;101320.13;5076856;28;45477;-42
2022/11/02 00:21:29;;;;;;;;;7.00;1.00;;;;;15.93;55.57;101331.59;5072273;28;70893;-45
2022/11/02 00:23:56;;;;;;;;;2.75;0.75;;;;;15.89;55.29;101333.50;5078710;27;63043;-47
2022/11/02 00:26:22;;;;;;;;;1.50;0.75;;;;;15.85;55.60;101334.53;5081488;27;45232;-43
2022/11/02 00:28:47;;;;;;;;;1.00;1.00;;;;;15.85;56.06;101350.38;5081943;27;61250;-50
2022/11/02 00:31:13;;;;;;;;;3.00;1.00;;;;;15.86;55.83;101349.44;5080922;27;45197;-48
2022/11/02 00:33:38;;;;;;;;;3.00;1.25;;;;;15.87;55.77;101352.97;5082516;27;62948;-42
2022/11/02 00:36:03;;;;;;;;;5.00;1.50;;;;;15.88;55.95;101352.03;5081444;27;65011;-43
2022/11/02 00:38:30;;;;;;;;;1.25;1.00;;;;;15.85;55.92;101355.66;5082206;28;49437;-47
2022/11/02 00:40:56;;;;;;;;;4.50;1.00;;;;;15.85;55.74;101363.56;5081329;27;47010;-43
2022/11/02 00:43:21;;;;;;;;;4.50;2.00;;;;;15.84;55.86;101358.34;5082120;28;45440;-43
2022/11/02 00:45:47;;;;;;;;;4.50;2.00;;;;;15.85;55.80;101360.09;5080850;27;67329;-46
2022/11/02 00:48:12;;;;;;;;;2.75;1.00;;;;;15.83;55.68;101356.63;5080818;27;63179;-44
2022/11/02 00:50:37;;;;;;;;;4.25;1.00;;;;;15.82;56.07;101370.75;5075897;28;65399;-43
2022/11/02 00:53:03;;;;;;;;;1.00;0.75;;;;;15.83;55.67;101361.91;5074694;27;45331;-44
2022/11/02 00:55:28;;;;;;;;;3.00;1.00;;;;;15.81;55.43;101372.53;5075921;28;46427;-46
2022/11/02 00:57:53;;;;;;;;;3.75;0.50;;;;;15.79;55.71;101368.22;5081608;27;68960;-48
2022/11/02 01:00:19;;;;;;;;;5.50;1.50;;;;;15.76;55.53;101379.78;5080265;28;72931;-45
2022/11/02 01:02:44;;;;;;;;;3.25;0.00;;;;;15.72;55.90;101376.34;5080949;27;45185;-45
2022/11/02 01:05:10;;;;;;;;;4.00;0.50;;;;;15.71;55.86;101386.97;5082289;27;45450;-45
2022/11/02 01:07:36;;;;;;;;;3.25;1.75;;;;;15.69;55.29;101392.31;5080482;27;45561;-43
2022/11/02 01:10:03;;;;;;;;;2.50;0.75;;;;;15.68;55.20;101392.34;5080195;28;47011;-44
2022/11/02 01:12:29;;;;;;;;;1.00;0.00;;;;;15.64;55.49;101394.25;5093048;27;45369;-45
2022/11/02 01:14:54;;;;;;;;;1.50;1.00;;;;;15.62;55.31;101396.09;5078291;27;58324;-46
2022/11/02 01:17:19;;;;;;;;;3.75;1.50;;;;;15.60;55.31;101405.84;5066324;28;56381;-44
2022/11/02 01:19:45;;;;;;;;;2.00;0.75;;;;;15.59;55.50;101397.97;5080749;27;45457;-45
2022/11/02 01:22:10;;;;;;;;;0.75;0.75;;;;;15.54;55.23;101396.34;5078950;27;71099;-49
2022/11/02 01:24:35;;;;;;;;;2.50;2.00;;;;;15.53;55.20;101399.94;5080629;28;63954;-46
2022/11/02 01:27:01;;;;;;;;;3.75;2.00;;;;;15.51;55.37;101392.97;5081777;27;56971;-48
2022/11/02 01:29:26;;;;;;;;;3.75;0.25;;;;;15.49;55.55;101392.16;5073874;27;47381;-42
2022/11/02 01:31:54;;;;;;;;;3.75;1.00;;;;;15.50;55.49;101402.66;5080113;27;68374;-47
2022/11/02 01:34:20;;;;;;;;;2.25;0.75;;;;;15.49;55.08;101408.88;5079098;27;45464;-43
2022/11/02 01:36:46;;;;;;;;;0.75;0.75;;;;;15.50;55.18;101396.53;5081482;27;45435;-43
2022/11/02 01:39:12;;;;;;;;;1.75;1.00;;;;;15.50;55.06;101400.03;5080621;28;46178;-48
2022/11/02 01:41:37;;;;;;;;;3.00;2.00;;;;;15.50;55.39;101401.81;5080582;27;45397;-49
2022/11/02 01:44:03;;;;;;;;;4.25;0.25;;;;;15.48;55.46;101393.09;5081072;28;45153;-49
2022/11/02 01:46:43;;;;;;;;;2.75;0.75;;;;;15.46;55.87;101406.34;5079791;28;45500;-49
2022/11/02 01:49:15;;;;;;;;;4.75;0.75;;;;;15.47;55.32;101404.56;5079287;28;46444;-48
2022/11/02 01:51:56;;;;;;;;;3.00;1.00;;;;;15.46;55.58;101418.69;5078735;27;45416;-42
2022/11/02 01:54:25;;;;;;;;;6.00;1.25;;;;;15.44;55.76;101417.84;5078854;28;45273;-44
2022/11/02 01:56:57;;;;;;;;;3.75;0.50;;;;;15.42;56.01;101415.28;5110831;27;45614;-48
2022/11/02 01:59:29;;;;;;;;;5.75;0.75;;;;;15.43;55.50;101424.06;5078836;28;45242;-45
2022/11/02 02:01:54;;;;;;;;;4.25;0.75;;;;;15.41;55.72;101421.47;5079524;28;45772;-44
2022/11/02 02:04:19;;;;;;;;;9.75;4.00;;;;;15.40;56.13;101429.44;5075052;28;65193;-45
2022/11/02 02:06:45;;;;;;;;;4.50;1.75;;;;;15.38;55.93;101425.06;5093217;27;45536;-43
2022/11/02 02:09:13;;;;;;;;;2.75;1.50;;;;;15.37;55.45;101420.72;5076359;27;73199;-43
2022/11/02 02:11:39;;;;;;;;;2.50;2.00;;;;;15.35;55.80;101419.03;5081305;27;45321;-43
2022/11/02 02:14:13;;;;;;;;;2.75;0.75;;;;;15.32;55.84;101427.09;5081321;27;45449;-45
2022/11/02 02:17:07;;;;;;;;;4.25;0.25;;;;;15.29;55.88;101421.91;5080259;28;45292;-44
2022/11/02 02:19:53;;;;;;;;;1.50;0.50;;;;;15.25;56.07;101438.78;5078207;28;45959;-44
2022/11/02 02:22:56;;;;;;;;;2.50;1.00;;;;;15.21;56.15;101435.38;5074801;28;45807;-46
2022/11/02 02:25:36;;;;;;;;;0.75;0.50;;;;;15.18;56.29;101438.97;5077325;28;45406;-43
2022/11/02 02:28:29;;;;;;;;;2.50;0.50;;;;;15.16;55.86;101440.81;5080754;28;45428;-45
2022/11/02 02:30:58;;;;;;;;;2.25;1.00;;;;;15.14;55.83;101437.38;5078731;27;47274;-42
2022/11/02 02:33:27;;;;;;;;;6.00;0.25;;;;;15.12;56.38;101428.66;5079908;27;45363;-43
2022/11/02 02:35:57;;;;;;;;;3.00;0.50;;;;;15.11;56.35;101437.47;5078744;27;45334;-47
2022/11/02 02:38:29;;;;;;;;;3.25;1.00;;;;;15.08;56.64;101440.19;5072008;27;45462;-44
2022/11/02 02:41:06;;;;;;;;;1.75;0.75;;;;;15.08;56.28;101447.25;5078462;28;45708;-45
2022/11/02 02:43:53;;;;;;;;;3.25;1.25;;;;;15.06;56.59;101449.09;5078624;28;45934;-45
2022/11/02 02:46:50;;;;;;;;;2.75;0.50;;;;;15.05;56.41;101444.72;5070851;28;45436;-44
2022/11/02 02:49:21;;;;;;;;;2.75;1.25;;;;;15.00;56.48;101444.91;5066393;28;45328;-45
2022/11/02 02:51:47;;;;;;;;;3.75;1.00;;;;;14.97;56.37;101451.13;5079111;27;46324;-43
2022/11/02 02:54:17;;;;;;;;;3.00;1.75;;;;;14.98;56.81;101442.31;5076716;28;45426;-44
2022/11/02 02:56:47;;;;;;;;;2.00;1.25;;;;;14.97;56.74;101452.91;5078385;27;45466;-47
2022/11/02 02:59:12;;;;;;;;;5.50;1.00;;;;;14.96;56.52;101454.69;5078141;28;45427;-48
2022/11/02 03:01:42;;;;;;;;;4.00;2.00;;;;;14.98;56.68;101463.38;5080580;28;45379;-45
2022/11/02 03:04:11;;;;;;;;;2.25;1.00;;;;;15.00;56.46;101453.66;5077651;27;71140;-43
2022/11/02 03:06:37;;;;;;;;;1.00;0.25;;;;;15.02;56.52;101463.28;5078605;27;45458;-44
2022/11/02 03:09:31;;;;;;;;;4.50;0.50;;;;;14.99;56.69;101470.38;5078710;28;45323;-44
2022/11/02 03:12:18;;;;;;;;;3.50;1.50;;;;;14.96;56.61;101469.59;5075945;27;46319;-45
2022/11/02 03:14:59;;;;;;;;;2.00;1.50;;;;;14.92;56.70;101465.38;5080180;27;45269;-44
2022/11/02 03:17:33;;;;;;;;;2.00;1.00;;;;;14.90;56.33;101475.09;5072446;27;45387;-43
2022/11/02 03:20:07;;;;;;;;;6.25;0.50;;;;;14.91;56.92;101476.81;5079529;28;45466;-47
2022/11/02 03:22:35;;;;;;;;;2.50;1.50;;;;;14.90;57.01;101480.38;5078223;28;46162;-43
2022/11/02 03:25:41;;;;;;;;;3.00;2.00;;;;;14.88;56.85;101480.41;5079766;28;45646;-45
2022/11/02 03:28:13;;;;;;;;;2.25;1.75;;;;;14.85;56.67;101471.75;5057744;28;45463;-44
2022/11/02 03:30:43;;;;;;;;;2.25;1.00;;;;;14.83;57.09;101479.69;5074804;28;45441;-43
2022/11/02 03:33:17;;;;;;;;;6.25;1.50;;;;;14.81;56.64;101479.75;5078940;28;45294;-46
2022/11/02 03:36:05;;;;;;;;;4.75;2.00;;;;;14.78;56.80;101484.25;5078483;27;45346;-48
2022/11/02 03:38:42;;;;;;;;;3.75;0.50;;;;;14.76;56.99;101486.09;5078947;27;45475;-47
2022/11/02 03:41:08;;;;;;;;;4.00;1.00;;;;;14.75;57.11;101486.97;5076957;28;45387;-45
2022/11/02 03:43:35;;;;;;;;;2.50;0.75;;;;;14.73;57.09;101492.34;5077366;27;45623;-44
2022/11/02 03:46:02;;;;;;;;;3.50;0.50;;;;;14.72;57.06;101501.13;5072056;27;45723;-44
2022/11/02 03:48:31;;;;;;;;;1.75;1.00;;;;;14.73;57.19;101510.78;5080027;27;45469;-47
2022/11/02 03:50:59;;;;;;;;;4.75;0.75;;;;;14.72;57.01;101516.94;5076973;28;45498;-45
2022/11/02 03:53:36;;;;;;;;;3.75;0.50;;;;;14.71;57.08;101515.22;5078239;27;46419;-46
2022/11/02 03:56:06;;;;;;;;;4.00;1.00;;;;;14.72;57.17;101526.63;5079970;28;45370;-44
2022/11/02 03:58:31;;;;;;;;;2.50;0.50;;;;;14.71;57.27;101540.69;5078824;28;45507;-45
2022/11/02 04:01:01;;;;;;;;;0.75;0.00;;;;;14.69;57.27;101542.53;5078320;28;72369;-45
2022/11/02 04:03:27;;;;;;;;;1.50;1.50;;;;;14.67;57.10;101542.56;5081197;27;46207;-44
2022/11/02 04:05:52;;;;;;;;;5.00;1.00;;;;;14.66;57.45;101547.88;5081110;27;66469;-44
2022/11/02 04:08:28;;;;;;;;;4.00;2.00;;;;;14.65;57.02;101554.94;5081345;28;45323;-45
2022/11/02 04:16:21;;;;;;;;;0.00;0.00;;;;;14.63;57.22;101563.81;5079589;27;45329;-45
2022/11/02 04:21:31;;;;;;;;;3.50;2.00;;;;;14.58;57.30;101561.31;5080085;27;45377;-43
2022/11/02 04:26:41;;;;;;;;;3.25;2.50;;;;;14.56;57.15;101577.13;5076044;27;45253;-44
2022/11/02 04:29:07;;;;;;;;;3.25;1.00;;;;;14.55;57.17;101578.00;5081327;27;45303;-43
2022/11/02 04:31:32;;;;;;;;;3.00;2.00;;;;;14.54;57.25;101584.19;5080937;28;68419;-43
2022/11/02 04:33:58;;;;;;;;;7.00;1.00;;;;;14.54;57.25;101589.47;5081048;27;57624;-44
2022/11/02 04:36:24;;;;;;;;;2.50;1.00;;;;;14.54;57.01;101591.25;5080515;27;45813;-43
2022/11/02 04:38:50;;;;;;;;;3.75;1.75;;;;;14.54;57.11;101593.88;5082285;27;45517;-42
2022/11/02 04:44:04;;;;;;;;;0.25;0.25;;;;;14.50;57.32;101590.47;5081856;27;45747;-42
2022/11/02 04:46:32;;;;;;;;;2.50;1.00;;;;;14.47;57.28;101592.34;5081681;27;45382;-41
2022/11/02 04:48:57;;;;;;;;;5.00;2.00;;;;;14.44;57.34;101599.41;5081906;27;45403;-42
2022/11/02 04:51:24;;;;;;;;;3.50;1.75;;;;;14.43;56.93;101595.06;5080491;27;71299;-42
2022/11/02 04:53:51;;;;;;;;;4.50;1.75;;;;;14.41;57.35;101593.34;5079996;27;45643;-41
2022/11/02 04:56:17;;;;;;;;;6.50;0.00;;;;;14.38;57.07;101596.97;5082637;27;45210;-42
2022/11/02 04:58:42;;;;;;;;;5.75;1.00;;;;;14.41;56.87;101606.53;5081907;27;68008;-42
2022/11/02 05:01:12;;;;;;;;;5.00;1.00;;;;;14.39;56.94;101601.31;5082644;27;45479;-42
2022/11/02 05:03:37;;;;;;;;;3.50;1.25;;;;;14.38;56.85;101617.19;5079629;27;45449;-44
2022/11/02 05:06:02;;;;;;;;;2.75;1.00;;;;;14.34;56.87;101613.75;5079109;27;70235;-45
2022/11/02 05:08:28;;;;;;;;;3.50;1.75;;;;;14.33;57.14;101619.06;5080645;27;45305;-44
2022/11/02 05:10:55;;;;;;;;;4.25;2.00;;;;;14.32;57.35;101620.81;5079725;27;73287;-43
2022/11/02 05:13:21;;;;;;;;;2.25;1.50;;;;;14.34;57.46;101623.41;5074910;28;45339;-42
2022/11/02 05:15:46;;;;;;;;;7.75;2.00;;;;;14.33;57.23;101635.72;5081075;27;45273;-43
2022/11/02 05:18:11;;;;;;;;;4.00;2.00;;;;;14.31;57.20;101637.53;5073794;27;68226;-43
2022/11/02 05:20:37;;;;;;;;;9.50;3.50;;;;;14.29;57.09;101628.81;5081733;27;66775;-43
2022/11/02 05:23:02;;;;;;;;;1.25;1.00;;;;;14.29;57.22;101642.00;5070804;27;46070;-44
2022/11/02 05:25:27;;;;;;;;;4.00;1.00;;;;;14.28;57.58;101647.28;5074270;28;65836;-42
2022/11/02 05:27:55;;;;;;;;;4.50;2.50;;;;;14.29;57.39;101643.75;5071910;27;45503;-44
2022/11/02 05:30:21;;;;;;;;;3.25;1.75;;;;;14.28;57.47;101647.28;5080347;27;45465;-44
2022/11/02 05:32:46;;;;;;;;;7.00;2.75;;;;;14.27;57.33;101640.28;5081068;27;68188;-43
2022/11/02 05:35:11;;;;;;;;;6.75;1.00;;;;;14.28;57.40;101649.94;5080712;27;66975;-49
2022/11/02 05:37:37;;;;;;;;;3.25;1.50;;;;;14.28;57.47;101644.66;5081004;27;62599;-44
2022/11/02 05:40:02;;;;;;;;;3.50;1.75;;;;;14.28;56.92;101647.28;5086101;27;63706;-46
2022/11/02 05:42:28;;;;;;;;;1.25;1.00;;;;;14.26;56.94;101654.38;5067424;28;45512;-44
2022/11/02 05:44:53;;;;;;;;;7.50;2.50;;;;;14.29;57.27;101649.00;5075686;27;56247;-43
2022/11/02 05:47:18;;;;;;;;;3.75;2.25;;;;;14.29;57.06;101662.16;5075076;27;65496;-42
2022/11/02 05:49:44;;;;;;;;;6.25;2.25;;;;;14.27;56.99;101651.72;5071134;28;45508;-48
2022/11/02 05:52:09;;;;;;;;;3.25;2.00;;;;;14.29;57.50;101660.44;5074950;27;45960;-44
2022/11/02 05:54:35;;;;;;;;;4.75;1.00;;;;;14.30;56.81;101662.13;5071730;28;68863;-44
2022/11/02 05:57:00;;;;;;;;;4.75;2.75;;;;;14.30;57.40;101667.41;5067803;28;45236;-43
2022/11/02 05:59:25;;;;;;;;;2.00;2.00;;;;;14.29;56.87;101660.44;5078976;28;67791;-47
2022/11/02 06:01:51;;;;;;;;;4.00;2.25;;;;;14.31;57.18;101660.38;5070117;27;63442;-45
2022/11/02 06:04:16;;;;;;;;;8.00;2.00;;;;;14.30;57.33;101663.91;5076102;28;53491;-46
2022/11/02 06:06:42;;;;;;;;;7.25;3.00;;;;;14.29;57.38;101665.69;5075585;27;45600;-44
2022/11/02 06:09:07;;;;;;;;;2.00;1.75;;;;;14.30;57.03;101663.91;5071788;28;45193;-44
2022/11/02 06:11:33;;;;;;;;;5.00;2.00;;;;;14.28;57.15;101674.47;5070874;28;46063;-42
2022/11/02 06:13:58;;;;;;;;;6.50;3.00;;;;;14.27;57.06;101672.78;5081257;27;45336;-48
2022/11/02 06:16:23;;;;;;;;;3.25;1.75;;;;;14.24;57.53;101665.81;5075476;28;45140;-48
2022/11/02 06:18:49;;;;;;;;;6.75;2.25;;;;;14.29;57.00;101677.97;5076932;27;45682;-47
2022/11/02 06:21:14;;;;;;;;;6.75;2.25;;;;;14.30;57.12;101672.66;5075307;28;45415;-48
2022/11/02 06:23:41;;;;;;;;;7.75;2.25;;;;;14.31;57.61;101677.03;5080374;28;45249;-43
2022/11/02 06:26:08;;;;;;;;;4.25;3.00;;;;;14.32;57.41;101675.25;5081289;27;45315;-45
2022/11/02 06:28:33;;;;;;;;;7.00;3.75;;;;;14.34;57.34;101673.44;5076060;28;45465;-43
2022/11/02 06:30:59;;;;;;;;;5.00;2.00;;;;;14.34;56.95;101671.69;5075748;27;45294;-47
2022/11/02 06:33:25;;;;;;;;;5.25;1.50;;;;;14.32;57.56;101681.38;5080378;28;45246;-44
2022/11/02 06:35:51;;;;;;;;;7.00;2.50;;;;;14.30;57.09;101687.59;5072409;28;45393;-44
2022/11/02 06:38:17;;;;;;;;;11.50;2.00;;;;;14.28;57.70;101686.78;5074642;28;45320;-42
2022/11/02 06:40:43;;;;;;;;;4.50;4.00;;;;;14.27;57.57;101682.41;5088836;27;47196;-44
2022/11/02 06:43:08;;;;;;;;;3.00;2.50;;;;;14.25;57.27;101685.09;5080369;28;45725;-43
2022/11/02 06:45:34;;;;;;;;;8.25;3.25;;;;;14.23;57.45;101690.38;5080171;27;58864;-45
2022/11/02 06:47:59;;;;;;;;;4.75;3.00;;;;;14.25;57.44;101698.25;5076135;28;45235;-44
2022/11/02 06:50:25;;;;;;;;;6.75;4.00;;;;;14.26;57.62;101696.50;5079523;27;66658;-43
2022/11/02 06:52:50;;;;;;;;;3.75;2.00;;;;;14.25;57.71;101708.78;5071558;27;45682;-44
2022/11/02 06:55:17;;;;;;;;;9.50;3.75;;;;;14.25;57.47;101711.41;5069639;27;45659;-45
2022/11/02 06:57:43;;;;;;;;;5.00;2.25;;;;;14.24;57.33;101701.81;5095832;27;45306;-44
2022/11/02 07:00:16;;;;;;;;;8.50;5.50;;;;;14.25;57.79;101714.06;5075476;27;45323;-42
2022/11/02 07:02:44;;;;;;;;;15.00;4.50;;;;;14.23;57.65;101715.88;5086040;27;45334;-43
2022/11/02 07:05:10;;;;;;;;;11.75;4.00;;;;;14.23;57.68;101716.72;5074439;28;45247;-44
2022/11/02 07:07:35;;;;;;;;;6.00;2.75;;;;;14.23;57.87;101719.34;5079648;27;62285;-43
2022/11/02 07:10:01;;;;;;;;;10.00;3.00;;;;;14.23;57.78;101707.97;5079832;28;45298;-42
2022/11/02 07:12:26;;;;;;;;;6.50;5.00;;;;;14.22;57.61;101704.47;5062498;27;45609;-43
2022/11/02 07:14:51;;;;;;;;;20.00;16.00;;;;;14.24;57.89;101715.81;5080358;28;45408;-42
2022/11/02 07:17:17;;;;;;;;;16.25;11.50;;;;;14.26;57.63;101720.19;5079670;27;70519;-45
2022/11/02 07:19:42;;;;;;;;;9.75;4.00;;;;;14.26;57.78;101722.84;5073653;27;62865;-43
2022/11/02 07:22:07;;;;;;;;;5.00;4.25;;;;;14.27;57.86;101719.28;5074974;27;53739;-46
2022/11/02 07:24:33;;;;;;;;;10.00;7.75;;;;;14.30;57.59;101724.47;5074042;28;58340;-47
2022/11/02 07:26:58;;;;;;;;;18.00;14.00;;;;;14.30;57.91;101735.00;5075333;27;57870;-43
2022/11/02 07:29:23;;;;;;;;;8.75;4.00;;;;;14.31;57.24;101727.06;5078818;27;45387;-42
2022/11/02 07:31:49;;;;;;;;;7.00;3.00;;;;;14.31;57.58;101728.84;5078893;27;45390;-45
2022/11/02 07:34:14;;;;;;;;;8.75;5.00;;;;;14.34;57.91;101731.38;5073125;28;45473;-42
2022/11/02 07:36:39;;;;;;;;;5.25;3.00;;;;;14.34;57.61;101728.75;5073666;28;65609;-43
2022/11/02 07:39:08;;;;;;;;;6.00;2.75;;;;;14.33;57.41;101725.25;5075678;27;65977;-44
2022/11/02 07:41:34;;;;;;;;;7.75;5.00;;;;;14.36;57.58;101733.06;5066156;28;46046;-44
2022/11/02 07:44:00;;;;;;;;;12.75;4.00;;;;;14.38;57.69;101731.25;5079260;27;45202;-42
2022/11/02 07:46:25;;;;;;;;;5.50;2.25;;;;;14.40;57.34;101732.09;5078652;28;45588;-42
2022/11/02 07:48:50;;;;;;;;;8.75;4.00;;;;;14.41;57.58;101736.47;5087682;27;47331;-43
2022/11/02 07:51:16;;;;;;;;;10.00;3.00;;;;;14.43;57.69;101736.41;5077905;28;45372;-44
2022/11/02 07:53:41;;;;;;;;;6.50;4.25;;;;;14.43;57.57;101733.78;5070509;27;67542;-44
2022/11/02 07:56:07;;;;;;;;;9.00;6.25;;;;;14.48;57.40;101737.13;5073917;28;62153;-43
2022/11/02 07:58:32;;;;;;;;;13.00;8.75;;;;;14.52;57.40;101748.44;5092049;27;46888;-43
2022/11/02 08:00:58;;;;;;;;;11.75;7.75;;;;;14.56;57.26;101745.69;5073536;28;45413;-43
2022/11/02 08:03:24;;;;;;;;;16.75;8.25;;;;;14.57;57.60;101747.44;5079735;27;45390;-45
2022/11/02 08:05:49;;;;;;;;;20.50;12.75;;;;;14.60;57.21;101750.00;5078666;27;45316;-44
2022/11/02 08:08:20;;;;;;;;;13.25;8.00;;;;;14.64;57.02;101740.25;5071339;28;45362;-43
2022/11/02 08:10:46;;;;;;;;;10.50;5.75;;;;;14.67;57.29;101748.06;5067217;27;45285;-42
2022/11/02 08:13:14;;;;;;;;;6.50;3.00;;;;;14.71;57.25;101738.31;5073278;27;45417;-42
2022/11/02 08:15:40;;;;;;;;;7.50;2.75;;;;;14.75;57.18;101740.81;5072447;27;45529;-43
2022/11/02 08:18:17;;;;;;;;;9.50;6.00;;;;;14.80;56.92;101733.66;5069051;28;45468;-45
2022/11/02 08:20:44;;;;;;;;;5.25;2.50;;;;;14.83;57.03;101742.38;5080194;27;45746;-44
2022/11/02 08:23:10;;;;;;;;;9.25;4.50;;;;;14.84;56.62;101746.72;5074694;28;45480;-44
2022/11/02 08:25:36;;;;;;;;;5.75;3.50;;;;;14.82;56.51;101738.88;5078125;28;45237;-43
2022/11/02 08:28:02;;;;;;;;;9.50;2.25;;;;;14.88;56.68;101743.09;5073435;28;45374;-42
2022/11/02 08:30:29;;;;;;;;;8.50;4.75;;;;;14.91;56.85;101746.50;5077896;28;45708;-46
2022/11/02 08:32:55;;;;;;;;;19.50;12.25;;;;;14.95;56.83;101744.66;5079014;27;45271;-42
2022/11/02 08:35:20;;;;;;;;;13.75;9.00;;;;;14.98;56.38;101744.56;5072685;28;45374;-43
2022/11/02 08:37:53;;;;;;;;;8.00;4.50;;;;;15.03;56.65;101750.53;5059401;28;45458;-42
2022/11/02 08:40:19;;;;;;;;;6.50;4.25;;;;;15.06;56.38;101739.91;5078060;28;45962;-44
2022/11/02 08:42:44;;;;;;;;;10.75;7.00;;;;;15.11;56.83;101747.72;5076822;28;45350;-43
2022/11/02 08:45:10;;;;;;;;;13.50;7.50;;;;;15.14;56.51;101756.38;5078564;27;63193;-44
2022/11/02 08:47:42;;;;;;;;;5.25;2.25;;;;;15.17;56.24;101753.66;5075434;27;50802;-43
2022/11/02 08:50:08;;;;;;;;;14.00;4.75;;;;;15.21;56.57;101753.56;5076763;27;45896;-43
2022/11/02 08:52:35;;;;;;;;;15.00;4.50;;;;;15.23;56.54;101754.38;5082124;27;45533;-44
2022/11/02 08:55:00;;;;;;;;;8.25;4.25;;;;;15.24;56.65;101751.69;5081444;27;45364;-46
2022/11/02 08:57:26;;;;;;;;;8.00;4.25;;;;;15.27;56.31;101748.09;5077951;28;73787;-44
2022/11/02 08:59:51;;;;;;;;;5.50;4.25;;;;;15.33;56.74;101754.06;5077702;27;72211;-43
2022/11/02 09:02:16;;;;;;;;;7.00;1.50;;;;;15.38;56.33;101748.63;5077996;27;65420;-45
2022/11/02 09:04:42;;;;;;;;;10.00;5.00;;;;;15.42;56.39;101752.88;5076957;28;69670;-45
2022/11/02 09:07:07;;;;;;;;;10.00;3.50;;;;;15.44;56.31;101752.84;5071678;27;67266;-47
2022/11/02 09:09:32;;;;;;;;;8.50;5.25;;;;;15.47;56.39;101753.63;5077327;27;45353;-42
2022/11/02 09:11:58;;;;;;;;;6.75;3.50;;;;;15.49;56.03;101741.28;5081137;27;45338;-47
2022/11/02 09:14:23;;;;;;;;;57.75;39.75;;;;;15.53;56.34;101745.53;5071747;28;63830;-43
2022/11/02 09:16:48;;;;;;;;;51.25;40.25;;;;;15.58;56.14;101742.72;5075787;27;66337;-43
2022/11/02 09:19:14;;;;;;;;;24.50;9.75;;;;;15.61;56.04;101745.28;5078268;27;66762;-47
2022/11/02 09:21:39;;;;;;;;;10.75;5.00;;;;;15.65;55.90;101752.19;5070877;28;65142;-44
2022/11/02 09:24:04;;;;;;;;;9.25;4.00;;;;;15.66;55.36;101735.44;5077238;27;56049;-42
2022/11/02 09:26:30;;;;;;;;;8.25;3.75;;;;;15.69;55.26;101732.72;5081718;28;46510;-43
2022/11/02 09:28:55;;;;;;;;;5.00;3.75;;;;;15.72;55.39;101739.66;5080399;27;69688;-42
2022/11/02 09:31:20;;;;;;;;;7.50;5.00;;;;;15.75;55.27;101739.59;5081373;27;66522;-42
2022/11/02 09:33:46;;;;;;;;;11.50;5.00;;;;;15.78;55.19;101739.50;5081966;27;45240;-42
2022/11/02 09:36:11;;;;;;;;;9.25;4.75;;;;;15.83;55.04;101736.69;5073277;28;66971;-43
2022/11/02 09:38:37;;;;;;;;;3.25;2.75;;;;;15.86;54.79;101740.09;5066892;27;45208;-42
2022/11/02 09:41:09;;;;;;;;;7.25;5.00;;;;;15.87;54.39;101731.28;5080527;27;45328;-42
2022/11/02 09:43:51;;;;;;;;;20.25;11.00;;;;;15.91;54.77;101734.66;5077510;28;45401;-43
2022/11/02 09:46:20;;;;;;;;;13.25;5.75;;;;;15.93;54.42;101736.31;5079981;27;45359;-43
2022/11/02 09:48:59;;;;;;;;;15.75;4.00;;;;;15.96;54.36;101732.75;5091565;27;45257;-42
2022/11/02 09:51:50;;;;;;;;;19.25;8.50;;;;;15.99;54.86;101732.66;5069942;27;45528;-44
2022/11/02 09:54:21;;;;;;;;;8.00;4.50;;;;;16.03;54.73;101734.25;5079179;28;45488;-42
2022/11/02 09:56:48;;;;;;;;;11.75;5.75;;;;;16.05;54.40;101735.06;5080573;28;45486;-43
2022/11/02 09:59:16;;;;;;;;;11.50;5.50;;;;;16.05;54.40;101735.06;5065948;28;45428;-42
2022/11/02 10:01:50;;;;;;;;;4.75;3.25;;;;;16.07;54.73;101730.59;5081564;28;45274;-47
2022/11/02 10:04:45;;;;;;;;;7.50;4.50;;;;;16.09;54.44;101731.41;5078365;28;45399;-42
2022/11/02 10:07:25;;;;;;;;;5.25;3.75;;;;;16.16;54.35;101733.84;5023966;28;46192;-43
2022/11/02 10:09:55;;;;;;;;;9.25;5.00;;;;;16.17;54.10;101728.50;5079323;27;45313;-44
2022/11/02 10:12:46;;;;;;;;;9.25;5.00;;;;;16.19;54.31;101731.94;5079998;27;45537;-43
2022/11/02 10:15:17;;;;;;;;;6.00;3.00;;;;;16.24;54.66;101732.66;5067581;28;45349;-43
2022/11/02 10:17:43;;;;;;;;;8.00;5.00;;;;;16.25;53.85;101729.09;5103558;27;46100;-45
2022/11/02 10:20:24;;;;;;;;;9.00;4.00;;;;;16.23;54.23;101724.78;5082894;27;69241;-44
2022/11/02 10:22:51;;;;;;;;;9.00;4.00;;;;;16.29;54.31;101732.50;5073393;27;45344;-42
2022/11/02 10:25:17;;;;;;;;;9.00;5.00;;;;;16.29;54.24;101727.22;5076254;28;45242;-45
2022/11/02 10:27:43;;;;;;;;;9.75;3.00;;;;;16.30;54.19;101732.44;5081354;27;46989;-42
2022/11/02 10:30:10;;;;;;;;;4.75;3.00;;;;;16.35;53.83;101728.78;5077611;27;45262;-42
2022/11/02 10:32:37;;;;;;;;;13.75;8.50;;;;;16.35;53.84;101727.00;5078146;27;45435;-43
2022/11/02 10:35:06;;;;;;;;;37.75;29.00;;;;;16.38;53.87;101726.00;5078912;27;45433;-42
2022/11/02 10:37:43;;;;;;;;;7.75;5.00;;;;;16.42;53.97;101728.50;5080047;28;46202;-42
2022/11/02 10:40:49;;;;;;;;;7.25;3.25;;;;;16.43;53.56;101730.25;5080915;27;45235;-43
2022/11/02 10:43:18;;;;;;;;;7.50;3.50;;;;;16.46;53.46;101724.81;5073734;28;45332;-44
2022/11/02 10:46:05;;;;;;;;;12.25;4.75;;;;;16.46;53.58;101730.13;5079908;27;45569;-42
2022/11/02 10:48:40;;;;;;;;;6.25;3.25;;;;;16.48;53.55;101727.41;5094060;27;46265;-42
2022/11/02 10:51:11;;;;;;;;;10.00;4.00;;;;;16.50;53.32;101721.19;5072914;28;45418;-42
2022/11/02 10:53:41;;;;;;;;;6.00;4.00;;;;;16.51;53.21;101725.53;5079304;28;45497;-42
2022/11/02 10:56:28;;;;;;;;;5.00;3.25;;;;;16.50;52.97;101721.19;5079346;27;45474;-44
2022/11/02 10:59:03;;;;;;;;;4.00;4.00;;;;;16.50;52.96;101723.81;5069180;28;45545;-42
2022/11/02 11:01:30;;;;;;;;;5.75;5.75;;;;;16.50;53.26;101718.53;5077865;28;45864;-41
2022/11/02 11:04:03;;;;;;;;;5.00;3.50;;;;;16.54;52.96;101715.75;5093792;27;45368;-43
2022/11/02 11:06:35;;;;;;;;;5.25;2.25;;;;;16.59;52.78;101716.47;5078794;28;45245;-43
2022/11/02 11:09:17;;;;;;;;;6.00;3.25;;;;;16.60;53.03;101718.19;5078348;28;46740;-43
2022/11/02 11:11:53;;;;;;;;;13.50;7.25;;;;;16.56;52.49;101714.81;5080147;27;45815;-44
2022/11/02 11:14:21;;;;;;;;;9.25;5.75;;;;;16.56;52.54;101708.66;5080295;27;45282;-47
2022/11/02 11:16:50;;;;;;;;;9.50;6.00;;;;;16.57;52.54;101719.16;5078923;28;45402;-45
2022/11/02 11:19:21;;;;;;;;;23.00;18.50;;;;;16.60;52.52;101711.13;5077754;28;45498;-44
2022/11/02 11:21:48;;;;;;;;;13.75;12.75;;;;;16.64;52.24;101710.13;5078743;28;45340;-47
2022/11/02 11:24:24;;;;;;;;;8.25;5.50;;;;;16.64;52.55;101706.59;5069531;27;45473;-46
2022/11/02 11:27:22;;;;;;;;;9.50;6.00;;;;;16.67;52.60;101706.47;5090803;27;45414;-46
2022/11/02 11:29:50;;;;;;;;;12.25;8.00;;;;;16.67;52.13;101704.69;5055912;28;60850;-44
2022/11/02 11:32:26;;;;;;;;;2.75;2.00;;;;;16.71;52.30;101700.16;5079706;27;45948;-44
2022/11/02 11:35:03;;;;;;;;;9.50;6.00;;;;;16.73;52.35;101694.81;5080481;27;45235;-43
2022/11/02 11:37:29;;;;;;;;;9.25;6.00;;;;;16.75;52.14;101692.97;5079769;27;45429;-45
2022/11/02 11:39:58;;;;;;;;;12.25;8.75;;;;;16.78;52.31;101692.88;5061265;28;46262;-45
2022/11/02 11:42:26;;;;;;;;;25.75;18.25;;;;;16.83;52.42;101685.63;5077670;27;45476;-43
2022/11/02 11:44:56;;;;;;;;;36.25;24.00;;;;;16.87;52.44;101679.31;5078346;27;45398;-42
2022/11/02 11:47:27;;;;;;;;;22.00;17.75;;;;;16.88;51.87;101687.19;5077176;27;45432;-42